createdAt,value
2018-12-09T00:01:07.053Z,6.40
2018-12-09T00:03:35.174Z,6.30
2018-12-09T00:06:03.318Z,6.30
2018-12-09T00:08:31.502Z,6.30
2018-12-09T00:10:59.664Z,6.30
2018-12-09T00:13:27.733Z,6.30
2018-12-09T00:15:56.097Z,6.30
2018-12-09T00:18:24.700Z,6.30
2018-12-09T00:20:52.783Z,6.30
2018-12-09T00:23:20.970Z,6.30
2018-12-09T00:25:49.136Z,6.20
2018-12-09T00:28:17.305Z,6.30
2018-12-09T00:30:45.517Z,6.20
2018-12-09T00:33:13.593Z,6.30
2018-12-09T00:35:42.067Z,6.30
2018-12-09T00:38:10.213Z,6.20
2018-12-09T00:40:38.393Z,6.30
2018-12-09T00:43:06.590Z,6.30
2018-12-09T00:45:34.748Z,6.30
2018-12-09T00:48:02.912Z,6.30
2018-12-09T00:50:31.075Z,6.30
2018-12-09T00:52:59.271Z,6.30
2018-12-09T00:55:27.413Z,6.30
2018-12-09T00:57:55.518Z,6.30
2018-12-09T01:00:23.698Z,6.30
2018-12-09T01:02:51.894Z,6.30
2018-12-09T01:05:20.056Z,6.30
2018-12-09T01:07:48.281Z,6.30
2018-12-09T01:10:16.507Z,6.30
2018-12-09T01:12:44.669Z,6.40
2018-12-09T01:15:12.838Z,6.40
2018-12-09T01:17:41.001Z,6.30
2018-12-09T01:20:09.224Z,6.40
2018-12-09T01:22:37.349Z,6.40
2018-12-09T01:25:05.574Z,6.40
2018-12-09T01:27:34.242Z,6.50
2018-12-09T01:30:02.437Z,6.50
2018-12-09T01:32:30.585Z,6.60
2018-12-09T01:34:58.905Z,6.60
2018-12-09T01:37:27.041Z,6.60
2018-12-09T01:39:55.217Z,6.70
2018-12-09T01:42:23.379Z,6.70
2018-12-09T01:44:51.789Z,6.70
2018-12-09T01:47:20.231Z,6.70
2018-12-09T01:49:48.838Z,6.70
2018-12-09T01:52:18.182Z,6.70
2018-12-09T01:54:46.457Z,6.70
2018-12-09T01:57:14.617Z,6.70
2018-12-09T01:59:42.751Z,6.70
2018-12-09T02:02:10.938Z,6.70
2018-12-09T02:04:39.091Z,6.70
2018-12-09T02:07:08.322Z,6.70
2018-12-09T02:09:36.454Z,6.80
2018-12-09T02:12:04.969Z,6.80
2018-12-09T02:14:33.152Z,6.70
2018-12-09T02:17:01.338Z,6.70
2018-12-09T02:19:29.465Z,6.80
2018-12-09T02:21:57.665Z,6.80
2018-12-09T02:24:25.881Z,6.80
2018-12-09T02:26:54.021Z,6.80
2018-12-09T02:29:24.447Z,6.90
2018-12-09T02:31:53.097Z,6.90
2018-12-09T02:34:21.654Z,6.90
2018-12-09T02:36:49.835Z,7.00
2018-12-09T02:39:17.977Z,7.00
2018-12-09T02:41:46.125Z,7.00
2018-12-09T02:44:14.297Z,7.10
2018-12-09T02:46:42.495Z,7.10
2018-12-09T02:49:10.651Z,7.10
2018-12-09T02:51:39.045Z,7.10
2018-12-09T02:54:07.319Z,7.20
2018-12-09T02:56:35.993Z,7.10
2018-12-09T02:59:04.190Z,7.10
2018-12-09T03:01:32.327Z,7.20
2018-12-09T03:04:00.646Z,7.20
2018-12-09T03:06:28.900Z,7.20
2018-12-09T03:08:57.070Z,7.20
2018-12-09T03:11:25.242Z,7.20
2018-12-09T03:13:53.471Z,7.20
2018-12-09T03:16:21.687Z,7.20
2018-12-09T03:18:49.942Z,7.20
2018-12-09T03:21:18.137Z,7.20
2018-12-09T03:23:46.318Z,7.30
2018-12-09T03:26:14.631Z,7.30
2018-12-09T03:28:42.879Z,7.30
2018-12-09T03:31:12.404Z,7.30
2018-12-09T03:33:40.567Z,7.30
2018-12-09T03:36:08.738Z,7.30
2018-12-09T03:38:36.981Z,7.40
2018-12-09T03:41:05.181Z,7.30
2018-12-09T03:43:33.383Z,7.40
2018-12-09T03:46:01.587Z,7.50
2018-12-09T03:48:29.921Z,7.50
2018-12-09T03:50:58.241Z,7.50
2018-12-09T03:53:26.883Z,7.50
2018-12-09T03:55:55.120Z,7.50
2018-12-09T03:58:23.219Z,7.50
2018-12-09T04:00:51.443Z,7.40
2018-12-09T04:03:19.586Z,7.40
2018-12-09T04:05:48.731Z,7.40
2018-12-09T04:08:16.947Z,7.40
2018-12-09T04:10:45.223Z,7.40
2018-12-09T04:13:13.414Z,7.30
2018-12-09T04:15:43.080Z,7.30
2018-12-09T04:18:16.484Z,7.30
2018-12-09T04:20:45.652Z,7.30
2018-12-09T04:23:14.754Z,7.30
2018-12-09T04:25:42.953Z,7.30
2018-12-09T04:28:16.927Z,7.40
2018-12-09T04:30:48.410Z,7.40
2018-12-09T04:33:16.993Z,7.40
2018-12-09T04:35:45.039Z,7.30
2018-12-09T04:38:13.184Z,7.30
2018-12-09T04:40:41.391Z,7.40
2018-12-09T04:43:09.529Z,7.50
2018-12-09T04:45:37.709Z,7.50
2018-12-09T04:48:05.889Z,7.50
2018-12-09T04:50:34.449Z,7.50
2018-12-09T04:53:02.652Z,7.50
2018-12-09T04:55:30.913Z,7.60
2018-12-09T04:57:59.102Z,7.70
2018-12-09T05:00:38.738Z,7.70
2018-12-09T05:03:06.932Z,7.70
2018-12-09T05:05:35.085Z,7.70
2018-12-09T05:08:03.279Z,7.80
2018-12-09T05:10:31.451Z,7.80
2018-12-09T05:12:59.726Z,7.90
2018-12-09T05:15:28.029Z,7.80
2018-12-09T05:17:56.162Z,7.90
2018-12-09T05:20:24.479Z,7.90
2018-12-09T05:22:52.767Z,7.90
2018-12-09T05:25:20.903Z,7.90
2018-12-09T05:27:49.081Z,7.90
2018-12-09T05:30:17.242Z,7.90
2018-12-09T05:32:45.397Z,8.00
2018-12-09T05:35:13.578Z,8.00
2018-12-09T05:37:41.860Z,8.00
2018-12-09T05:40:11.923Z,8.10
2018-12-09T05:42:40.158Z,8.10
2018-12-09T05:45:08.421Z,8.10
2018-12-09T05:47:36.558Z,8.00
2018-12-09T05:50:04.839Z,8.00
2018-12-09T05:52:33.011Z,8.00
2018-12-09T05:55:01.150Z,8.00
2018-12-09T05:57:29.365Z,8.00
2018-12-09T05:59:57.882Z,7.90
2018-12-09T06:02:51.149Z,7.90
2018-12-09T06:05:19.430Z,7.80
2018-12-09T06:07:47.670Z,7.70
2018-12-09T06:10:15.759Z,7.70
2018-12-09T06:12:43.943Z,7.60
2018-12-09T06:15:12.140Z,7.60
2018-12-09T06:17:40.301Z,7.70
2018-12-09T06:20:08.904Z,7.70
2018-12-09T06:22:37.089Z,7.80
2018-12-09T06:25:05.258Z,7.80
2018-12-09T06:27:33.452Z,7.70
2018-12-09T06:30:01.695Z,7.80
2018-12-09T06:32:30.378Z,7.70
2018-12-09T06:34:58.571Z,7.70
2018-12-09T06:37:26.749Z,7.60
2018-12-09T06:39:54.949Z,7.60
2018-12-09T06:42:23.173Z,7.60
2018-12-09T06:44:51.486Z,7.50
2018-12-09T06:47:19.626Z,7.50
2018-12-09T06:49:47.829Z,7.50
2018-12-09T06:52:20.976Z,7.50
2018-12-09T06:54:49.194Z,7.50
2018-12-09T06:57:18.465Z,7.50
2018-12-09T06:59:46.637Z,7.50
2018-12-09T07:02:15.742Z,7.40
2018-12-09T07:04:43.916Z,7.40
2018-12-09T07:07:12.201Z,7.40
2018-12-09T07:09:41.423Z,7.30
2018-12-09T07:12:11.712Z,7.30
2018-12-09T07:14:39.894Z,7.20
2018-12-09T07:17:08.066Z,7.20
2018-12-09T07:19:36.235Z,7.20
2018-12-09T07:22:05.337Z,7.20
2018-12-09T07:24:33.498Z,7.20
2018-12-09T07:27:01.772Z,7.20
2018-12-09T07:29:29.949Z,7.10
2018-12-09T07:31:58.158Z,7.20
2018-12-09T07:34:26.304Z,7.20
2018-12-09T07:36:54.510Z,7.20
2018-12-09T07:39:23.745Z,7.10
2018-12-09T07:41:51.859Z,7.10
2018-12-09T07:44:20.041Z,7.10
2018-12-09T07:46:49.237Z,7.10
2018-12-09T07:49:17.442Z,7.10
2018-12-09T07:51:45.596Z,7.20
2018-12-09T07:54:13.749Z,7.10
2018-12-09T07:56:41.974Z,7.20
2018-12-09T07:59:10.785Z,7.20
2018-12-09T08:01:39.463Z,7.30
2018-12-09T08:04:07.597Z,7.30
2018-12-09T08:06:36.199Z,7.30
2018-12-09T08:09:05.794Z,7.30
2018-12-09T08:11:33.942Z,7.40
2018-12-09T08:14:02.164Z,7.40
2018-12-09T08:16:30.299Z,7.30
2018-12-09T08:18:58.489Z,7.30
2018-12-09T08:21:26.636Z,7.30
2018-12-09T08:23:54.903Z,7.20
2018-12-09T08:26:23.476Z,7.30
2018-12-09T08:28:51.600Z,7.20
2018-12-09T08:31:19.790Z,7.30
2018-12-09T08:33:47.952Z,7.30
2018-12-09T08:36:16.035Z,7.20
2018-12-09T08:38:44.140Z,7.30
2018-12-09T08:41:12.360Z,7.30
2018-12-09T08:43:40.525Z,7.30
2018-12-09T08:46:08.699Z,7.40
2018-12-09T08:48:36.897Z,7.40
2018-12-09T08:51:05.045Z,7.40
2018-12-09T08:53:33.255Z,7.40
2018-12-09T08:56:01.457Z,7.40
2018-12-09T08:58:29.611Z,7.40
2018-12-09T09:00:57.776Z,7.40
2018-12-09T09:03:25.903Z,7.40
2018-12-09T09:05:54.114Z,7.40
2018-12-09T09:08:22.393Z,7.40
2018-12-09T09:10:50.551Z,7.50
2018-12-09T09:13:18.739Z,7.50
2018-12-09T09:15:46.860Z,7.50
2018-12-09T09:18:14.979Z,7.60
2018-12-09T09:20:43.156Z,7.60
2018-12-09T09:23:11.446Z,7.60
2018-12-09T09:25:39.615Z,7.60
2018-12-09T09:28:07.765Z,7.60
2018-12-09T09:30:35.991Z,7.70
2018-12-09T09:33:04.122Z,7.70
2018-12-09T09:35:32.164Z,7.70
2018-12-09T09:38:00.263Z,7.70
2018-12-09T09:40:28.434Z,7.70
2018-12-09T09:42:56.655Z,7.70
2018-12-09T09:45:24.801Z,7.70
2018-12-09T09:47:53.006Z,7.70
2018-12-09T09:50:21.147Z,7.70
2018-12-09T09:52:49.306Z,7.70
2018-12-09T09:55:17.549Z,7.80
2018-12-09T09:57:45.683Z,7.80
2018-12-09T10:00:13.865Z,7.90
2018-12-09T10:02:42.032Z,7.90
2018-12-09T10:05:10.328Z,7.90
2018-12-09T10:07:38.487Z,7.90
2018-12-09T10:10:06.911Z,8.00
2018-12-09T10:12:35.161Z,7.90
2018-12-09T10:15:03.303Z,7.80
2018-12-09T10:17:31.482Z,7.80
2018-12-09T10:19:59.632Z,7.90
2018-12-09T10:22:27.805Z,8.10
2018-12-09T10:24:55.982Z,8.00
2018-12-09T10:27:24.170Z,8.00
2018-12-09T10:29:52.336Z,8.00
2018-12-09T10:32:21.485Z,8.10
2018-12-09T10:34:49.580Z,8.30
2018-12-09T10:37:17.690Z,8.40
2018-12-09T10:39:45.867Z,8.40
2018-12-09T10:42:14.063Z,8.30
2018-12-09T10:44:42.208Z,8.20
2018-12-09T10:47:10.434Z,8.30
2018-12-09T10:49:38.581Z,8.30
2018-12-09T10:52:06.747Z,8.10
2018-12-09T10:54:34.937Z,8.10
2018-12-09T10:57:03.084Z,8.20
2018-12-09T10:59:31.270Z,8.20
2018-12-09T11:02:04.551Z,8.20
2018-12-09T11:04:32.740Z,8.20
2018-12-09T11:07:00.927Z,8.10
2018-12-09T11:09:29.083Z,8.00
2018-12-09T11:11:57.214Z,8.00
2018-12-09T11:14:25.369Z,7.90
2018-12-09T11:16:53.540Z,7.90
2018-12-09T11:19:21.721Z,7.90
2018-12-09T11:21:49.847Z,7.90
2018-12-09T11:24:18.927Z,8.00
2018-12-09T11:26:47.117Z,8.40
2018-12-09T11:29:15.369Z,8.40
2018-12-09T11:31:43.690Z,8.20
2018-12-09T11:34:11.820Z,8.20
2018-12-09T11:36:40.038Z,8.10
2018-12-09T11:39:09.368Z,8.10
2018-12-09T11:41:37.800Z,8.20
2018-12-09T11:44:05.933Z,8.10
2018-12-09T11:46:34.085Z,8.20
2018-12-09T11:49:02.263Z,8.20
2018-12-09T11:51:30.439Z,8.30
2018-12-09T11:53:58.634Z,8.30
2018-12-09T11:56:26.833Z,8.30
2018-12-09T11:58:55.006Z,8.20
2018-12-09T12:01:23.373Z,8.20
2018-12-09T12:03:51.505Z,8.20
2018-12-09T12:06:19.679Z,8.20
2018-12-09T12:08:47.851Z,8.20
2018-12-09T12:11:17.049Z,8.20
2018-12-09T12:13:45.214Z,8.20
2018-12-09T12:16:13.453Z,8.20
2018-12-09T12:18:41.537Z,8.20
2018-12-09T12:21:09.745Z,8.20
2018-12-09T12:23:38.050Z,8.20
2018-12-09T12:26:06.541Z,8.30
2018-12-09T12:28:35.039Z,8.30
2018-12-09T12:31:04.164Z,8.30
2018-12-09T12:33:32.363Z,8.30
2018-12-09T12:36:00.448Z,8.30
2018-12-09T12:39:53.089Z,8.40
2018-12-09T12:42:21.281Z,8.30
2018-12-09T12:44:49.426Z,8.30
2018-12-09T12:47:17.700Z,8.30
2018-12-09T12:49:46.819Z,8.30
2018-12-09T12:52:14.973Z,8.30
2018-12-09T12:54:43.127Z,8.30
2018-12-09T12:57:12.247Z,8.30
2018-12-09T12:59:40.468Z,8.40
2018-12-09T13:02:08.587Z,8.40
2018-12-09T13:04:36.766Z,8.40
2018-12-09T13:07:05.002Z,8.40
2018-12-09T13:09:33.146Z,8.40
2018-12-09T13:12:01.320Z,8.40
2018-12-09T13:14:29.599Z,8.40
2018-12-09T13:16:57.783Z,8.40
2018-12-09T13:19:25.937Z,8.40
2018-12-09T13:21:54.199Z,8.30
2018-12-09T13:24:22.404Z,8.30
2018-12-09T13:26:50.565Z,8.30
2018-12-09T13:29:18.813Z,8.30
2018-12-09T13:31:47.077Z,8.30
2018-12-09T13:34:15.204Z,8.30
2018-12-09T13:36:43.322Z,8.20
2018-12-09T13:39:11.464Z,8.20
2018-12-09T13:41:39.626Z,8.10
2018-12-09T13:44:07.761Z,8.10
2018-12-09T13:46:35.911Z,8.10
2018-12-09T13:49:04.145Z,8.00
2018-12-09T13:51:32.360Z,8.00
2018-12-09T13:54:00.410Z,8.00
2018-12-09T13:56:28.575Z,8.00
2018-12-09T13:58:56.828Z,8.00
2018-12-09T14:01:25.017Z,8.00
2018-12-09T14:03:53.490Z,8.00
2018-12-09T14:06:21.782Z,8.00
2018-12-09T14:08:49.981Z,8.00
2018-12-09T14:11:18.160Z,8.00
2018-12-09T14:13:46.280Z,8.10
2018-12-09T14:16:14.557Z,8.00
2018-12-09T14:18:42.792Z,8.00
2018-12-09T14:21:11.073Z,8.00
2018-12-09T14:23:39.347Z,8.00
2018-12-09T14:26:07.521Z,8.00
2018-12-09T14:28:35.600Z,8.00
2018-12-09T14:31:03.831Z,8.00
2018-12-09T14:33:33.044Z,8.00
2018-12-09T14:36:01.226Z,8.00
2018-12-09T14:38:29.360Z,8.00
2018-12-09T14:40:57.556Z,8.00
2018-12-09T14:43:25.753Z,7.90
2018-12-09T14:45:53.892Z,8.00
2018-12-09T14:48:22.112Z,8.00
2018-12-09T14:50:50.313Z,8.00
2018-12-09T14:53:18.532Z,7.90
2018-12-09T14:55:46.697Z,7.90
2018-12-09T14:58:14.915Z,7.90
2018-12-09T15:00:43.095Z,7.90
2018-12-09T15:03:11.177Z,7.80
2018-12-09T15:05:39.401Z,7.80
2018-12-09T15:08:07.546Z,7.80
2018-12-09T15:10:35.841Z,7.70
2018-12-09T15:13:04.029Z,7.70
2018-12-09T15:15:32.127Z,7.70
2018-12-09T15:18:00.773Z,7.60
2018-12-09T15:20:28.958Z,7.60
2018-12-09T15:22:57.113Z,7.50
2018-12-09T15:25:25.389Z,7.50
2018-12-09T15:27:53.998Z,7.50
2018-12-09T15:30:22.185Z,7.40
2018-12-09T15:32:50.285Z,7.40
2018-12-09T15:35:18.405Z,7.40
2018-12-09T15:37:46.573Z,7.40
2018-12-09T15:40:14.925Z,7.40
2018-12-09T15:42:43.137Z,7.40
2018-12-09T15:45:11.434Z,7.40
2018-12-09T15:47:39.599Z,7.40
2018-12-09T15:50:09.005Z,7.40
2018-12-09T15:52:37.205Z,7.40
2018-12-09T15:55:05.848Z,7.40
2018-12-09T15:57:34.082Z,7.40
2018-12-09T16:00:02.182Z,7.40
2018-12-09T16:02:30.413Z,7.50
2018-12-09T16:04:58.541Z,7.50
2018-12-09T16:07:26.769Z,7.50
2018-12-09T16:09:54.985Z,7.60
2018-12-09T16:12:24.036Z,7.50
2018-12-09T16:14:52.132Z,7.50
2018-12-09T16:17:20.253Z,7.50
2018-12-09T16:19:48.403Z,7.50
2018-12-09T16:22:16.673Z,7.60
2018-12-09T16:24:44.913Z,7.60
2018-12-09T16:28:16.345Z,7.60
2018-12-09T16:30:44.626Z,7.60
2018-12-09T16:33:12.951Z,7.60
2018-12-09T16:35:41.181Z,7.60
2018-12-09T16:38:09.342Z,7.70
2018-12-09T16:40:37.540Z,7.70
2018-12-09T16:43:05.714Z,7.70
2018-12-09T16:45:33.843Z,7.70
2018-12-09T16:48:02.081Z,7.60
2018-12-09T16:50:30.222Z,7.60
2018-12-09T16:52:58.352Z,7.60
2018-12-09T16:55:28.528Z,7.50
2018-12-09T16:57:56.720Z,7.50
2018-12-09T17:00:24.798Z,7.50
2018-12-09T17:02:52.941Z,7.50
2018-12-09T17:05:21.550Z,7.50
2018-12-09T17:07:49.697Z,7.50
2018-12-09T17:10:17.885Z,7.40
2018-12-09T17:12:46.062Z,7.50
2018-12-09T17:15:14.269Z,7.50
2018-12-09T17:17:43.435Z,7.50
2018-12-09T17:20:11.595Z,7.50
2018-12-09T17:22:39.803Z,7.50
2018-12-09T17:25:07.912Z,7.50
2018-12-09T17:27:36.127Z,7.50
2018-12-09T17:30:04.390Z,7.60
2018-12-09T17:32:32.549Z,7.60
2018-12-09T17:35:00.843Z,7.50
2018-12-09T17:37:29.121Z,7.50
2018-12-09T17:39:57.293Z,7.70
2018-12-09T17:42:25.492Z,7.60
2018-12-09T17:44:53.651Z,7.50
2018-12-09T17:47:25.234Z,7.40
2018-12-09T17:49:53.434Z,7.40
2018-12-09T17:52:21.614Z,7.40
2018-12-09T17:54:51.788Z,7.40
2018-12-09T17:57:20.000Z,7.40
2018-12-09T17:59:49.153Z,7.40
2018-12-09T18:02:17.475Z,7.40
2018-12-09T18:04:45.685Z,7.30
2018-12-09T18:07:13.782Z,7.40
2018-12-09T18:09:41.944Z,7.30
2018-12-09T18:12:10.118Z,7.30
2018-12-09T18:14:39.366Z,7.30
2018-12-09T18:17:08.633Z,7.30
2018-12-09T18:19:36.848Z,7.20
2018-12-09T18:22:04.971Z,7.20
2018-12-09T18:24:33.205Z,7.20
2018-12-09T18:27:01.429Z,7.20
2018-12-09T18:29:29.577Z,7.20
2018-12-09T18:31:57.872Z,7.20
2018-12-09T18:34:26.064Z,7.20
2018-12-09T18:36:54.137Z,7.30
2018-12-09T18:39:22.363Z,7.20
2018-12-09T18:41:50.574Z,7.20
2018-12-09T18:44:18.747Z,7.20
2018-12-09T18:46:46.922Z,7.30
2018-12-09T18:49:15.095Z,7.20
2018-12-09T18:51:43.268Z,7.30
2018-12-09T18:54:11.609Z,7.30
2018-12-09T18:56:40.855Z,7.20
2018-12-09T18:59:09.002Z,7.20
2018-12-09T19:01:37.190Z,7.20
2018-12-09T19:04:08.630Z,7.20
2018-12-09T19:06:36.810Z,7.20
2018-12-09T19:09:06.633Z,7.20
2018-12-09T19:11:34.818Z,7.20
2018-12-09T19:14:03.558Z,7.20
2018-12-09T19:16:31.725Z,7.20
2018-12-09T19:18:59.909Z,7.20
2018-12-09T19:21:28.222Z,7.20
2018-12-09T19:23:56.393Z,7.20
2018-12-09T19:26:24.662Z,7.20
2018-12-09T19:28:52.931Z,7.20
2018-12-09T19:31:21.156Z,7.20
2018-12-09T19:33:49.311Z,7.20
2018-12-09T19:36:17.539Z,7.20
2018-12-09T19:38:45.712Z,7.30
2018-12-09T19:41:13.918Z,7.20
2018-12-09T19:43:42.080Z,7.30
2018-12-09T19:46:10.197Z,7.30
2018-12-09T19:48:38.357Z,7.30
2018-12-09T19:51:06.553Z,7.20
2018-12-09T19:53:34.691Z,7.30
2018-12-09T19:56:04.434Z,7.30
2018-12-09T19:58:32.694Z,7.20
2018-12-09T20:01:00.821Z,7.30
2018-12-09T20:03:28.923Z,7.20
2018-12-09T20:05:57.126Z,7.20
2018-12-09T20:08:25.273Z,7.20
2018-12-09T20:10:53.500Z,7.20
2018-12-09T20:13:21.614Z,7.20
2018-12-09T20:15:49.882Z,7.20
2018-12-09T20:18:17.947Z,7.20
2018-12-09T20:20:46.001Z,7.10
2018-12-09T20:23:14.173Z,7.10
2018-12-09T20:25:42.310Z,7.20
2018-12-09T20:28:10.484Z,7.20
2018-12-09T20:30:38.660Z,7.10
2018-12-09T20:33:06.917Z,7.10
2018-12-09T20:35:35.189Z,7.10
2018-12-09T20:38:03.972Z,7.10
2018-12-09T20:40:32.161Z,7.00
2018-12-09T20:43:00.319Z,7.10
2018-12-09T20:45:28.544Z,7.10
2018-12-09T20:47:56.713Z,7.00
2018-12-09T20:50:24.914Z,7.00
2018-12-09T20:52:53.062Z,6.90
2018-12-09T20:55:21.260Z,6.90
2018-12-09T20:57:49.392Z,6.90
2018-12-09T21:00:17.626Z,7.00
2018-12-09T21:02:45.746Z,6.90
2018-12-09T21:05:13.961Z,7.00
2018-12-09T21:07:42.353Z,7.00
2018-12-09T21:10:10.751Z,7.00
2018-12-09T21:12:39.003Z,7.00
2018-12-09T21:15:07.513Z,7.00
2018-12-09T21:17:35.722Z,7.00
2018-12-09T21:20:03.979Z,7.00
2018-12-09T21:22:32.184Z,7.00
2018-12-09T21:25:00.352Z,7.00
2018-12-09T21:27:28.563Z,7.00
2018-12-09T21:29:56.731Z,7.00
2018-12-09T21:32:24.886Z,7.00
2018-12-09T21:34:53.049Z,7.00
2018-12-09T21:37:21.094Z,7.00
2018-12-09T21:39:49.311Z,6.90
2018-12-09T21:42:17.520Z,7.00
2018-12-09T21:44:45.604Z,7.00
2018-12-09T21:47:13.822Z,7.00
2018-12-09T21:49:42.014Z,6.90
2018-12-09T21:52:10.166Z,6.90
2018-12-09T21:57:52.462Z,6.80
2018-12-09T22:00:20.684Z,6.80
2018-12-09T22:02:48.835Z,6.80
2018-12-09T22:05:17.294Z,6.80
2018-12-09T22:07:45.510Z,6.80
2018-12-09T22:10:13.675Z,6.80
2018-12-09T22:12:42.037Z,6.80
2018-12-09T22:15:10.244Z,6.80
2018-12-09T22:17:38.389Z,6.80
2018-12-09T22:20:06.563Z,6.80
2018-12-09T22:22:34.834Z,6.80
2018-12-09T22:25:03.072Z,6.80
2018-12-09T22:27:31.242Z,6.80
2018-12-09T22:29:59.321Z,6.80
2018-12-09T22:32:27.445Z,6.80
2018-12-09T22:34:55.619Z,6.80
2018-12-09T22:37:23.778Z,6.80
2018-12-09T22:39:52.021Z,6.70
2018-12-09T22:42:20.161Z,6.80
2018-12-09T22:44:48.303Z,6.80
2018-12-09T22:47:16.505Z,6.70
2018-12-09T22:49:44.659Z,6.80
2018-12-09T22:52:12.901Z,6.70
2018-12-09T22:54:41.146Z,6.80
2018-12-09T22:57:09.326Z,6.70
2018-12-09T22:59:37.450Z,6.70
2018-12-09T23:02:11.054Z,6.70
2018-12-09T23:04:39.230Z,6.70
2018-12-09T23:07:12.701Z,6.60
2018-12-09T23:09:40.774Z,6.60
2018-12-09T23:12:08.892Z,6.60
2018-12-09T23:14:37.071Z,6.60
2018-12-09T23:17:05.294Z,6.60
2018-12-09T23:19:33.338Z,6.60
2018-12-09T23:22:01.456Z,6.60
2018-12-09T23:24:29.655Z,6.60
2018-12-09T23:26:57.846Z,6.60
2018-12-09T23:29:26.037Z,6.60
2018-12-09T23:31:54.611Z,6.60
2018-12-09T23:34:22.792Z,6.60
2018-12-09T23:36:50.958Z,6.60
2018-12-09T23:39:19.110Z,6.60
2018-12-09T23:41:47.277Z,6.60
2018-12-09T23:44:15.548Z,6.60
2018-12-09T23:46:43.781Z,6.50
2018-12-09T23:49:11.958Z,6.50
2018-12-09T23:51:40.084Z,6.50
2018-12-09T23:54:08.291Z,6.40
2018-12-09T23:56:36.378Z,6.40
2018-12-09T23:59:04.517Z,6.40
